Portada
METAR-TAF:

METAR-TAF

Aeroports :

Sint Maarten, Antilles Neerlandeses

latitud: 18-03N, longitud: 063-07W, altitud: 4 m

Observació

L'informe es va fer fa 34 minuts, a les 06:00 UTC
Vent 12 kt del Est/Nord-Est
Temperatura 24°C
Humitat 74%
Pressió 1017 hPa
Visibilitat 10 km o més
Escasses núvols a una alçada de 2000 ft

METAR: TNCM 200600Z 07012KT 9999 FEW020 24/19 Q1017 A3004 NOSIG

Hora: 02:34 (06:34 UTC)

Pronòstic

L'informe es va fer fa 54 minuts, a les 05:40 UTC
Pronòstic vàlid del 20 a les 06 UTC al 21 a les 06 UTC
Vent 10 kt del Est
Visibilitat: 10 km
Núvols disperses a una alçada de 2000 ft

TAF: TNCM 200540Z 2006/2106 08010KT P6SM SCT020

Observacions i pronòstics meteorològics de més de 4000 aeroports (METAR i TAF).

Les estacions disponibles són els punts grocs i vermells al mapa.

Posi el ratolí al punt desitjat per veure el nom de l'estació.

Feu clic per veure les observacions i els pronòstics meteorològics.

Per canviar el mapa: feu clic els botons verds amb una creu de color negre per apropar; al botó verd amb un guió per allunyar la imatge; o en les fletxes verdes per a mapes adjacents.


METAR-TAF: